sensor_id;sensor_type;location;lat;lon;timestamp;temperature;humidity
47174;DHT22;36730;49.036;9.094;2023-07-31T00:01:54;26.10;62.10
47174;DHT22;36730;49.036;9.094;2023-07-31T00:04:20;26.10;61.90
47174;DHT22;36730;49.036;9.094;2023-07-31T00:06:45;26.10;62.00
47174;DHT22;36730;49.036;9.094;2023-07-31T00:09:10;26.10;62.00
47174;DHT22;36730;49.036;9.094;2023-07-31T00:11:36;26.10;62.00
47174;DHT22;36730;49.036;9.094;2023-07-31T00:14:01;26.10;62.00
47174;DHT22;36730;49.036;9.094;2023-07-31T00:16:27;26.10;62.00
47174;DHT22;36730;49.036;9.094;2023-07-31T00:18:53;26.10;62.20
47174;DHT22;36730;49.036;9.094;2023-07-31T00:21:18;26.10;62.10
47174;DHT22;36730;49.036;9.094;2023-07-31T00:23:44;26.10;62.10
47174;DHT22;36730;49.036;9.094;2023-07-31T00:26:09;26.10;62.30
47174;DHT22;36730;49.036;9.094;2023-07-31T00:28:35;26.00;62.10
47174;DHT22;36730;49.036;9.094;2023-07-31T00:31:00;26.10;62.10
47174;DHT22;36730;49.036;9.094;2023-07-31T00:33:27;26.10;62.20
47174;DHT22;36730;49.036;9.094;2023-07-31T00:35:52;26.10;62.10
47174;DHT22;36730;49.036;9.094;2023-07-31T00:38:17;26.00;62.10
47174;DHT22;36730;49.036;9.094;2023-07-31T00:40:43;26.00;62.10
47174;DHT22;36730;49.036;9.094;2023-07-31T00:43:08;26.00;62.30
47174;DHT22;36730;49.036;9.094;2023-07-31T00:45:34;26.00;62.20
47174;DHT22;36730;49.036;9.094;2023-07-31T00:48:00;26.00;62.10
47174;DHT22;36730;49.036;9.094;2023-07-31T00:50:25;26.00;62.20
47174;DHT22;36730;49.036;9.094;2023-07-31T00:52:52;26.00;62.30
47174;DHT22;36730;49.036;9.094;2023-07-31T00:55:17;25.90;62.30
47174;DHT22;36730;49.036;9.094;2023-07-31T00:57:43;25.90;62.30
47174;DHT22;36730;49.036;9.094;2023-07-31T01:00:10;25.90;62.30
47174;DHT22;36730;49.036;9.094;2023-07-31T01:02:35;25.90;62.30
47174;DHT22;36730;49.036;9.094;2023-07-31T01:05:01;25.90;62.40
47174;DHT22;36730;49.036;9.094;2023-07-31T01:07:31;25.90;62.30
47174;DHT22;36730;49.036;9.094;2023-07-31T01:12:28;26.00;62.30
47174;DHT22;36730;49.036;9.094;2023-07-31T01:17:26;25.90;62.30
47174;DHT22;36730;49.036;9.094;2023-07-31T01:19:52;25.90;62.30
47174;DHT22;36730;49.036;9.094;2023-07-31T01:22:23;25.90;62.30
47174;DHT22;36730;49.036;9.094;2023-07-31T01:27:40;25.90;62.40
47174;DHT22;36730;49.036;9.094;2023-07-31T01:30:14;25.90;62.40
47174;DHT22;36730;49.036;9.094;2023-07-31T01:32:42;25.90;62.50
47174;DHT22;36730;49.036;9.094;2023-07-31T01:35:08;25.90;62.50
47174;DHT22;36730;49.036;9.094;2023-07-31T01:37:34;25.80;62.50
47174;DHT22;36730;49.036;9.094;2023-07-31T01:39:59;25.80;62.60
47174;DHT22;36730;49.036;9.094;2023-07-31T01:42:25;25.80;62.50
47174;DHT22;36730;49.036;9.094;2023-07-31T01:44:50;25.80;62.60
47174;DHT22;36730;49.036;9.094;2023-07-31T01:47:15;25.80;62.60
47174;DHT22;36730;49.036;9.094;2023-07-31T01:49:41;25.80;62.60
47174;DHT22;36730;49.036;9.094;2023-07-31T01:52:06;25.80;62.60
47174;DHT22;36730;49.036;9.094;2023-07-31T01:54:32;25.80;62.60
47174;DHT22;36730;49.036;9.094;2023-07-31T01:56:58;25.80;62.60
47174;DHT22;36730;49.036;9.094;2023-07-31T01:59:24;25.80;62.70
47174;DHT22;36730;49.036;9.094;2023-07-31T02:01:49;25.80;62.60
47174;DHT22;36730;49.036;9.094;2023-07-31T02:04:15;25.80;62.70
47174;DHT22;36730;49.036;9.094;2023-07-31T02:06:40;25.80;62.80
47174;DHT22;36730;49.036;9.094;2023-07-31T02:09:06;25.80;62.70
47174;DHT22;36730;49.036;9.094;2023-07-31T02:11:31;25.80;62.80
47174;DHT22;36730;49.036;9.094;2023-07-31T02:13:57;25.70;62.90
47174;DHT22;36730;49.036;9.094;2023-07-31T02:16:22;25.80;62.80
47174;DHT22;36730;49.036;9.094;2023-07-31T02:18:48;25.70;62.70
47174;DHT22;36730;49.036;9.094;2023-07-31T02:21:13;25.70;63.30
47174;DHT22;36730;49.036;9.094;2023-07-31T02:23:39;25.70;62.90
47174;DHT22;36730;49.036;9.094;2023-07-31T02:26:04;25.70;62.90
47174;DHT22;36730;49.036;9.094;2023-07-31T02:28:29;25.70;62.90
47174;DHT22;36730;49.036;9.094;2023-07-31T02:30:55;25.70;63.00
47174;DHT22;36730;49.036;9.094;2023-07-31T02:33:20;25.70;63.00
47174;DHT22;36730;49.036;9.094;2023-07-31T02:35:46;25.70;62.90
47174;DHT22;36730;49.036;9.094;2023-07-31T02:38:11;25.70;62.90
47174;DHT22;36730;49.036;9.094;2023-07-31T02:40:37;25.70;63.00
47174;DHT22;36730;49.036;9.094;2023-07-31T02:43:02;25.70;63.00
47174;DHT22;36730;49.036;9.094;2023-07-31T02:45:28;25.70;63.10
47174;DHT22;36730;49.036;9.094;2023-07-31T02:47:53;25.70;62.90
47174;DHT22;36730;49.036;9.094;2023-07-31T02:50:19;25.70;62.90
47174;DHT22;36730;49.036;9.094;2023-07-31T02:52:44;25.70;63.00
47174;DHT22;36730;49.036;9.094;2023-07-31T02:55:10;25.70;63.10
47174;DHT22;36730;49.036;9.094;2023-07-31T02:57:36;25.70;63.20
47174;DHT22;36730;49.036;9.094;2023-07-31T03:00:01;25.60;63.10
47174;DHT22;36730;49.036;9.094;2023-07-31T03:02:30;25.70;63.20
47174;DHT22;36730;49.036;9.094;2023-07-31T03:04:56;25.70;63.20
47174;DHT22;36730;49.036;9.094;2023-07-31T03:07:21;25.70;63.30
47174;DHT22;36730;49.036;9.094;2023-07-31T03:09:47;25.70;63.30
47174;DHT22;36730;49.036;9.094;2023-07-31T03:12:12;25.70;63.20
47174;DHT22;36730;49.036;9.094;2023-07-31T03:14:38;25.60;63.20
47174;DHT22;36730;49.036;9.094;2023-07-31T03:17:03;25.70;63.30
47174;DHT22;36730;49.036;9.094;2023-07-31T03:19:32;25.60;63.30
47174;DHT22;36730;49.036;9.094;2023-07-31T03:21:58;25.60;63.30
47174;DHT22;36730;49.036;9.094;2023-07-31T03:24:23;25.60;63.80
47174;DHT22;36730;49.036;9.094;2023-07-31T03:26:49;25.60;63.50
47174;DHT22;36730;49.036;9.094;2023-07-31T03:29:14;25.60;63.20
47174;DHT22;36730;49.036;9.094;2023-07-31T03:31:40;25.50;62.90
47174;DHT22;36730;49.036;9.094;2023-07-31T03:34:05;25.50;62.90
47174;DHT22;36730;49.036;9.094;2023-07-31T03:36:31;25.40;63.10
47174;DHT22;36730;49.036;9.094;2023-07-31T03:38:57;25.40;63.90
47174;DHT22;36730;49.036;9.094;2023-07-31T03:41:22;25.40;62.70
47174;DHT22;36730;49.036;9.094;2023-07-31T03:43:49;25.30;63.00
47174;DHT22;36730;49.036;9.094;2023-07-31T03:46:15;25.30;63.20
47174;DHT22;36730;49.036;9.094;2023-07-31T03:48:40;25.10;63.40
47174;DHT22;36730;49.036;9.094;2023-07-31T03:51:06;25.00;63.30
47174;DHT22;36730;49.036;9.094;2023-07-31T03:53:31;24.90;64.50
47174;DHT22;36730;49.036;9.094;2023-07-31T03:55:56;24.80;64.10
47174;DHT22;36730;49.036;9.094;2023-07-31T03:58:22;24.70;64.30
47174;DHT22;36730;49.036;9.094;2023-07-31T04:00:47;24.70;64.40
47174;DHT22;36730;49.036;9.094;2023-07-31T04:03:13;24.60;64.50
47174;DHT22;36730;49.036;9.094;2023-07-31T04:05:39;24.50;65.20
47174;DHT22;36730;49.036;9.094;2023-07-31T04:08:05;24.50;65.50
47174;DHT22;36730;49.036;9.094;2023-07-31T04:10:30;24.40;65.00
47174;DHT22;36730;49.036;9.094;2023-07-31T04:12:58;24.40;65.10
47174;DHT22;36730;49.036;9.094;2023-07-31T04:15:24;24.40;65.70
47174;DHT22;36730;49.036;9.094;2023-07-31T04:17:49;24.40;65.40
47174;DHT22;36730;49.036;9.094;2023-07-31T04:20:15;24.30;66.10
47174;DHT22;36730;49.036;9.094;2023-07-31T04:22:40;24.30;65.80
47174;DHT22;36730;49.036;9.094;2023-07-31T04:25:05;24.20;66.50
47174;DHT22;36730;49.036;9.094;2023-07-31T04:27:31;24.20;65.10
47174;DHT22;36730;49.036;9.094;2023-07-31T04:29:57;24.20;65.20
47174;DHT22;36730;49.036;9.094;2023-07-31T04:32:22;24.20;65.40
47174;DHT22;36730;49.036;9.094;2023-07-31T04:34:47;24.20;65.50
47174;DHT22;36730;49.036;9.094;2023-07-31T04:37:13;24.10;65.50
47174;DHT22;36730;49.036;9.094;2023-07-31T04:39:39;24.10;65.40
47174;DHT22;36730;49.036;9.094;2023-07-31T04:42:04;24.10;66.90
47174;DHT22;36730;49.036;9.094;2023-07-31T04:44:30;24.00;65.90
47174;DHT22;36730;49.036;9.094;2023-07-31T04:46:55;24.00;67.40
47174;DHT22;36730;49.036;9.094;2023-07-31T04:49:21;24.00;65.90
47174;DHT22;36730;49.036;9.094;2023-07-31T04:51:47;24.00;66.30
47174;DHT22;36730;49.036;9.094;2023-07-31T04:54:12;24.00;66.40
47174;DHT22;36730;49.036;9.094;2023-07-31T04:56:40;23.90;66.40
47174;DHT22;36730;49.036;9.094;2023-07-31T04:59:06;23.90;66.90
47174;DHT22;36730;49.036;9.094;2023-07-31T05:01:31;23.90;67.30
47174;DHT22;36730;49.036;9.094;2023-07-31T05:03:57;23.90;66.80
47174;DHT22;36730;49.036;9.094;2023-07-31T05:06:22;23.90;67.40
47174;DHT22;36730;49.036;9.094;2023-07-31T05:08:48;23.80;67.60
47174;DHT22;36730;49.036;9.094;2023-07-31T05:11:13;23.80;67.60
47174;DHT22;36730;49.036;9.094;2023-07-31T05:13:39;23.80;67.10
47174;DHT22;36730;49.036;9.094;2023-07-31T05:16:04;23.80;67.40
47174;DHT22;36730;49.036;9.094;2023-07-31T05:18:30;23.80;67.20
47174;DHT22;36730;49.036;9.094;2023-07-31T05:20:55;23.80;67.40
47174;DHT22;36730;49.036;9.094;2023-07-31T05:23:21;23.80;67.50
47174;DHT22;36730;49.036;9.094;2023-07-31T05:25:46;23.80;67.80
47174;DHT22;36730;49.036;9.094;2023-07-31T05:28:12;23.80;67.70
47174;DHT22;36730;49.036;9.094;2023-07-31T05:30:37;23.80;67.70
47174;DHT22;36730;49.036;9.094;2023-07-31T05:33:03;23.80;68.40
47174;DHT22;36730;49.036;9.094;2023-07-31T05:35:28;23.80;67.90
47174;DHT22;36730;49.036;9.094;2023-07-31T05:37:54;23.80;68.20
47174;DHT22;36730;49.036;9.094;2023-07-31T05:40:19;23.80;68.20
47174;DHT22;36730;49.036;9.094;2023-07-31T05:42:45;23.80;68.30
47174;DHT22;36730;49.036;9.094;2023-07-31T05:45:10;23.80;68.30
47174;DHT22;36730;49.036;9.094;2023-07-31T05:47:36;23.80;69.30
47174;DHT22;36730;49.036;9.094;2023-07-31T05:50:01;23.80;68.50
47174;DHT22;36730;49.036;9.094;2023-07-31T05:52:27;23.80;68.60
47174;DHT22;36730;49.036;9.094;2023-07-31T05:54:54;23.80;70.40
47174;DHT22;36730;49.036;9.094;2023-07-31T05:57:19;23.80;69.70
47174;DHT22;36730;49.036;9.094;2023-07-31T05:59:45;23.80;68.30
47174;DHT22;36730;49.036;9.094;2023-07-31T06:02:11;23.90;68.50
47174;DHT22;36730;49.036;9.094;2023-07-31T06:04:36;23.90;68.60
47174;DHT22;36730;49.036;9.094;2023-07-31T06:07:02;23.90;68.20
47174;DHT22;36730;49.036;9.094;2023-07-31T06:09:28;23.90;68.20
47174;DHT22;36730;49.036;9.094;2023-07-31T06:11:54;23.80;68.40
47174;DHT22;36730;49.036;9.094;2023-07-31T06:14:19;23.80;69.00
47174;DHT22;36730;49.036;9.094;2023-07-31T06:16:44;23.80;68.80
47174;DHT22;36730;49.036;9.094;2023-07-31T06:19:10;23.80;68.20
47174;DHT22;36730;49.036;9.094;2023-07-31T06:21:36;23.80;68.70
47174;DHT22;36730;49.036;9.094;2023-07-31T06:24:07;23.80;68.00
47174;DHT22;36730;49.036;9.094;2023-07-31T06:26:33;23.80;68.10
47174;DHT22;36730;49.036;9.094;2023-07-31T06:28:58;23.80;68.10
47174;DHT22;36730;49.036;9.094;2023-07-31T06:31:24;23.80;68.20
47174;DHT22;36730;49.036;9.094;2023-07-31T06:33:50;23.80;67.80
47174;DHT22;36730;49.036;9.094;2023-07-31T06:36:16;23.80;67.40
47174;DHT22;36730;49.036;9.094;2023-07-31T06:38:41;23.80;67.40
47174;DHT22;36730;49.036;9.094;2023-07-31T06:41:07;23.80;67.50
47174;DHT22;36730;49.036;9.094;2023-07-31T06:43:32;23.80;67.40
47174;DHT22;36730;49.036;9.094;2023-07-31T06:45:59;23.90;67.80
47174;DHT22;36730;49.036;9.094;2023-07-31T06:48:25;23.90;67.80
47174;DHT22;36730;49.036;9.094;2023-07-31T06:50:50;23.90;68.20
47174;DHT22;36730;49.036;9.094;2023-07-31T06:53:16;23.90;68.10
47174;DHT22;36730;49.036;9.094;2023-07-31T06:55:41;23.90;68.70
47174;DHT22;36730;49.036;9.094;2023-07-31T06:58:07;23.90;68.80
47174;DHT22;36730;49.036;9.094;2023-07-31T07:00:32;23.90;68.70
47174;DHT22;36730;49.036;9.094;2023-07-31T07:02:58;23.90;69.20
47174;DHT22;36730;49.036;9.094;2023-07-31T07:05:23;24.00;68.80
47174;DHT22;36730;49.036;9.094;2023-07-31T07:07:49;24.00;68.70
47174;DHT22;36730;49.036;9.094;2023-07-31T07:10:16;23.90;68.90
47174;DHT22;36730;49.036;9.094;2023-07-31T07:12:42;23.90;69.20
47174;DHT22;36730;49.036;9.094;2023-07-31T07:15:07;24.00;69.40
47174;DHT22;36730;49.036;9.094;2023-07-31T07:17:33;24.00;69.20
47174;DHT22;36730;49.036;9.094;2023-07-31T07:19:59;24.00;69.10
47174;DHT22;36730;49.036;9.094;2023-07-31T07:22:24;24.00;69.20
47174;DHT22;36730;49.036;9.094;2023-07-31T07:24:51;24.00;69.10
47174;DHT22;36730;49.036;9.094;2023-07-31T07:27:16;24.20;69.30
47174;DHT22;36730;49.036;9.094;2023-07-31T07:29:42;24.10;68.20
47174;DHT22;36730;49.036;9.094;2023-07-31T07:32:07;24.10;68.00
47174;DHT22;36730;49.036;9.094;2023-07-31T07:34:33;24.10;68.60
47174;DHT22;36730;49.036;9.094;2023-07-31T07:36:58;24.10;67.40
47174;DHT22;36730;49.036;9.094;2023-07-31T07:39:24;24.10;67.50
47174;DHT22;36730;49.036;9.094;2023-07-31T07:41:50;24.20;67.50
47174;DHT22;36730;49.036;9.094;2023-07-31T07:44:15;24.20;67.20
47174;DHT22;36730;49.036;9.094;2023-07-31T07:46:41;24.20;67.30
47174;DHT22;36730;49.036;9.094;2023-07-31T07:49:06;24.20;67.20
47174;DHT22;36730;49.036;9.094;2023-07-31T07:51:32;24.30;67.20
47174;DHT22;36730;49.036;9.094;2023-07-31T07:53:58;24.30;67.10
47174;DHT22;36730;49.036;9.094;2023-07-31T07:56:24;24.30;66.80
47174;DHT22;36730;49.036;9.094;2023-07-31T07:58:49;24.30;67.40
47174;DHT22;36730;49.036;9.094;2023-07-31T08:01:15;24.40;68.00
47174;DHT22;36730;49.036;9.094;2023-07-31T08:03:41;24.40;66.90
47174;DHT22;36730;49.036;9.094;2023-07-31T08:06:06;24.40;66.70
47174;DHT22;36730;49.036;9.094;2023-07-31T08:08:34;24.40;66.60
47174;DHT22;36730;49.036;9.094;2023-07-31T08:11:00;24.50;66.30
47174;DHT22;36730;49.036;9.094;2023-07-31T08:13:25;24.50;66.90
47174;DHT22;36730;49.036;9.094;2023-07-31T08:15:51;24.50;66.90
47174;DHT22;36730;49.036;9.094;2023-07-31T08:18:17;24.50;66.60
47174;DHT22;36730;49.036;9.094;2023-07-31T08:20:42;24.60;66.30
47174;DHT22;36730;49.036;9.094;2023-07-31T08:23:08;24.60;66.30
47174;DHT22;36730;49.036;9.094;2023-07-31T08:25:35;24.60;65.90
47174;DHT22;36730;49.036;9.094;2023-07-31T08:28:01;24.70;65.20
47174;DHT22;36730;49.036;9.094;2023-07-31T08:30:26;24.70;65.50
47174;DHT22;36730;49.036;9.094;2023-07-31T08:32:51;24.70;65.50
47174;DHT22;36730;49.036;9.094;2023-07-31T08:35:17;24.70;65.60
47174;DHT22;36730;49.036;9.094;2023-07-31T08:37:42;24.70;66.90
47174;DHT22;36730;49.036;9.094;2023-07-31T08:40:08;24.70;65.60
47174;DHT22;36730;49.036;9.094;2023-07-31T08:42:34;24.70;64.50
47174;DHT22;36730;49.036;9.094;2023-07-31T08:44:59;24.70;64.80
47174;DHT22;36730;49.036;9.094;2023-07-31T08:47:25;24.70;65.10
47174;DHT22;36730;49.036;9.094;2023-07-31T08:49:51;24.60;64.90
47174;DHT22;36730;49.036;9.094;2023-07-31T08:52:17;24.60;64.70
47174;DHT22;36730;49.036;9.094;2023-07-31T08:54:42;24.60;65.30
47174;DHT22;36730;49.036;9.094;2023-07-31T08:57:08;24.70;64.00
47174;DHT22;36730;49.036;9.094;2023-07-31T08:59:35;24.60;64.70
47174;DHT22;36730;49.036;9.094;2023-07-31T09:02:08;24.60;64.30
47174;DHT22;36730;49.036;9.094;2023-07-31T09:04:33;24.60;65.30
47174;DHT22;36730;49.036;9.094;2023-07-31T09:07:00;24.60;65.50
47174;DHT22;36730;49.036;9.094;2023-07-31T09:09:26;24.60;65.00
47174;DHT22;36730;49.036;9.094;2023-07-31T09:11:51;24.60;65.40
47174;DHT22;36730;49.036;9.094;2023-07-31T09:14:17;24.60;65.10
47174;DHT22;36730;49.036;9.094;2023-07-31T09:16:56;24.60;65.00
47174;DHT22;36730;49.036;9.094;2023-07-31T09:19:34;24.60;66.50
47174;DHT22;36730;49.036;9.094;2023-07-31T09:22:03;24.70;64.70
47174;DHT22;36730;49.036;9.094;2023-07-31T09:24:29;24.70;65.70
47174;DHT22;36730;49.036;9.094;2023-07-31T09:26:55;24.70;65.30
47174;DHT22;36730;49.036;9.094;2023-07-31T09:29:21;24.70;65.20
47174;DHT22;36730;49.036;9.094;2023-07-31T09:31:47;24.70;65.00
47174;DHT22;36730;49.036;9.094;2023-07-31T09:34:12;24.70;65.50
47174;DHT22;36730;49.036;9.094;2023-07-31T09:36:42;24.60;65.50
47174;DHT22;36730;49.036;9.094;2023-07-31T09:39:09;24.60;65.90
47174;DHT22;36730;49.036;9.094;2023-07-31T09:41:39;24.60;65.40
47174;DHT22;36730;49.036;9.094;2023-07-31T09:44:04;24.70;65.70
47174;DHT22;36730;49.036;9.094;2023-07-31T09:46:30;24.70;65.90
47174;DHT22;36730;49.036;9.094;2023-07-31T09:49:06;24.70;65.60
47174;DHT22;36730;49.036;9.094;2023-07-31T09:51:31;24.80;65.90
47174;DHT22;36730;49.036;9.094;2023-07-31T09:53:57;24.80;65.70
47174;DHT22;36730;49.036;9.094;2023-07-31T09:56:23;24.80;66.00
47174;DHT22;36730;49.036;9.094;2023-07-31T09:58:48;24.90;66.50
47174;DHT22;36730;49.036;9.094;2023-07-31T10:01:14;24.90;65.40
47174;DHT22;36730;49.036;9.094;2023-07-31T10:03:40;25.00;65.30
47174;DHT22;36730;49.036;9.094;2023-07-31T10:06:06;25.00;65.30
47174;DHT22;36730;49.036;9.094;2023-07-31T10:08:32;25.00;65.00
47174;DHT22;36730;49.036;9.094;2023-07-31T10:10:59;25.10;65.00
47174;DHT22;36730;49.036;9.094;2023-07-31T10:13:25;25.10;65.70
47174;DHT22;36730;49.036;9.094;2023-07-31T10:15:53;25.10;64.60
47174;DHT22;36730;49.036;9.094;2023-07-31T10:18:18;25.20;63.70
47174;DHT22;36730;49.036;9.094;2023-07-31T10:20:45;25.30;63.90
47174;DHT22;36730;49.036;9.094;2023-07-31T10:23:10;25.30;63.90
47174;DHT22;36730;49.036;9.094;2023-07-31T10:25:37;25.40;63.50
47174;DHT22;36730;49.036;9.094;2023-07-31T10:28:03;25.40;62.60
47174;DHT22;36730;49.036;9.094;2023-07-31T10:30:31;25.40;62.60
47174;DHT22;36730;49.036;9.094;2023-07-31T10:32:57;25.40;61.90
47174;DHT22;36730;49.036;9.094;2023-07-31T10:35:23;25.40;61.80
47174;DHT22;36730;49.036;9.094;2023-07-31T10:37:49;25.40;62.20
47174;DHT22;36730;49.036;9.094;2023-07-31T10:47:51;25.60;62.00
47174;DHT22;36730;49.036;9.094;2023-07-31T10:50:23;25.60;61.80
47174;DHT22;36730;49.036;9.094;2023-07-31T10:52:50;25.70;61.70
47174;DHT22;36730;49.036;9.094;2023-07-31T10:55:16;25.70;61.10
47174;DHT22;36730;49.036;9.094;2023-07-31T10:57:47;25.70;61.60
47174;DHT22;36730;49.036;9.094;2023-07-31T11:00:24;25.70;61.00
47174;DHT22;36730;49.036;9.094;2023-07-31T11:02:57;25.70;61.80
47174;DHT22;36730;49.036;9.094;2023-07-31T11:10:36;25.70;59.90
47174;DHT22;36730;49.036;9.094;2023-07-31T11:13:03;25.80;60.70
47174;DHT22;36730;49.036;9.094;2023-07-31T11:15:29;25.80;61.50
47174;DHT22;36730;49.036;9.094;2023-07-31T11:17:55;25.80;60.60
47174;DHT22;36730;49.036;9.094;2023-07-31T11:20:26;25.80;60.60
47174;DHT22;36730;49.036;9.094;2023-07-31T11:22:52;25.90;61.50
47174;DHT22;36730;49.036;9.094;2023-07-31T11:25:17;26.00;60.70
47174;DHT22;36730;49.036;9.094;2023-07-31T11:27:43;26.00;60.60
47174;DHT22;36730;49.036;9.094;2023-07-31T11:30:09;26.10;61.00
47174;DHT22;36730;49.036;9.094;2023-07-31T11:32:38;26.00;59.80
47174;DHT22;36730;49.036;9.094;2023-07-31T11:35:03;26.00;59.80
47174;DHT22;36730;49.036;9.094;2023-07-31T11:37:40;26.00;60.80
47174;DHT22;36730;49.036;9.094;2023-07-31T11:40:06;26.10;59.80
47174;DHT22;36730;49.036;9.094;2023-07-31T11:42:32;26.10;60.50
47174;DHT22;36730;49.036;9.094;2023-07-31T11:44:57;26.10;59.90
47174;DHT22;36730;49.036;9.094;2023-07-31T11:47:23;26.10;60.80
47174;DHT22;36730;49.036;9.094;2023-07-31T11:49:50;26.20;59.80
47174;DHT22;36730;49.036;9.094;2023-07-31T11:52:16;26.20;60.90
47174;DHT22;36730;49.036;9.094;2023-07-31T11:54:45;26.20;60.50
47174;DHT22;36730;49.036;9.094;2023-07-31T11:57:11;26.10;59.90
47174;DHT22;36730;49.036;9.094;2023-07-31T11:59:38;26.10;59.70
47174;DHT22;36730;49.036;9.094;2023-07-31T12:02:03;26.10;60.40
47174;DHT22;36730;49.036;9.094;2023-07-31T12:04:29;26.10;60.80
47174;DHT22;36730;49.036;9.094;2023-07-31T12:06:55;26.10;59.80
47174;DHT22;36730;49.036;9.094;2023-07-31T12:09:20;26.00;61.50
47174;DHT22;36730;49.036;9.094;2023-07-31T12:11:46;26.10;61.30
47174;DHT22;36730;49.036;9.094;2023-07-31T12:16:57;26.10;61.40
47174;DHT22;36730;49.036;9.094;2023-07-31T12:19:23;26.10;59.90
47174;DHT22;36730;49.036;9.094;2023-07-31T12:21:51;26.10;60.90
47174;DHT22;36730;49.036;9.094;2023-07-31T12:24:18;26.10;60.50
47174;DHT22;36730;49.036;9.094;2023-07-31T12:26:45;26.10;60.90
47174;DHT22;36730;49.036;9.094;2023-07-31T12:29:10;26.00;61.70
47174;DHT22;36730;49.036;9.094;2023-07-31T12:31:36;26.00;60.80
47174;DHT22;36730;49.036;9.094;2023-07-31T12:34:02;26.00;60.30
47174;DHT22;36730;49.036;9.094;2023-07-31T12:36:28;26.00;60.30
47174;DHT22;36730;49.036;9.094;2023-07-31T12:38:55;25.90;60.00
47174;DHT22;36730;49.036;9.094;2023-07-31T12:41:23;25.90;62.20
47174;DHT22;36730;49.036;9.094;2023-07-31T12:43:48;25.90;60.70
47174;DHT22;36730;49.036;9.094;2023-07-31T12:46:14;25.90;60.00
47174;DHT22;36730;49.036;9.094;2023-07-31T12:48:41;25.90;60.10
47174;DHT22;36730;49.036;9.094;2023-07-31T12:51:06;25.80;60.50
47174;DHT22;36730;49.036;9.094;2023-07-31T12:53:32;25.80;60.40
47174;DHT22;36730;49.036;9.094;2023-07-31T12:55:58;25.90;60.80
47174;DHT22;36730;49.036;9.094;2023-07-31T12:58:24;25.90;60.00
47174;DHT22;36730;49.036;9.094;2023-07-31T13:00:49;25.80;60.00
47174;DHT22;36730;49.036;9.094;2023-07-31T13:03:15;25.80;60.90
47174;DHT22;36730;49.036;9.094;2023-07-31T13:05:40;25.90;60.60
47174;DHT22;36730;49.036;9.094;2023-07-31T13:08:06;25.90;61.10
47174;DHT22;36730;49.036;9.094;2023-07-31T13:10:31;25.90;61.40
47174;DHT22;36730;49.036;9.094;2023-07-31T13:12:57;25.90;61.70
47174;DHT22;36730;49.036;9.094;2023-07-31T13:15:22;25.90;62.00
47174;DHT22;36730;49.036;9.094;2023-07-31T13:17:48;25.90;61.60
47174;DHT22;36730;49.036;9.094;2023-07-31T13:20:13;25.90;61.50
47174;DHT22;36730;49.036;9.094;2023-07-31T13:22:39;26.00;62.40
47174;DHT22;36730;49.036;9.094;2023-07-31T13:25:05;26.00;62.00
47174;DHT22;36730;49.036;9.094;2023-07-31T13:27:30;26.00;61.40
47174;DHT22;36730;49.036;9.094;2023-07-31T13:29:56;26.10;62.20
47174;DHT22;36730;49.036;9.094;2023-07-31T13:32:21;26.10;62.00
47174;DHT22;36730;49.036;9.094;2023-07-31T13:34:47;26.10;61.50
47174;DHT22;36730;49.036;9.094;2023-07-31T13:37:13;26.10;61.30
47174;DHT22;36730;49.036;9.094;2023-07-31T13:39:39;26.10;60.60
47174;DHT22;36730;49.036;9.094;2023-07-31T13:42:04;26.10;61.70
47174;DHT22;36730;49.036;9.094;2023-07-31T13:44:40;26.20;61.40
47174;DHT22;36730;49.036;9.094;2023-07-31T13:47:05;26.20;61.20
47174;DHT22;36730;49.036;9.094;2023-07-31T13:49:31;26.20;61.70
47174;DHT22;36730;49.036;9.094;2023-07-31T13:51:57;26.30;61.70
47174;DHT22;36730;49.036;9.094;2023-07-31T13:54:23;26.30;61.40
47174;DHT22;36730;49.036;9.094;2023-07-31T13:56:49;26.40;61.20
47174;DHT22;36730;49.036;9.094;2023-07-31T13:59:14;26.40;60.90
47174;DHT22;36730;49.036;9.094;2023-07-31T14:01:43;26.40;60.60
47174;DHT22;36730;49.036;9.094;2023-07-31T14:04:09;26.50;61.30
47174;DHT22;36730;49.036;9.094;2023-07-31T14:06:34;26.50;61.00
47174;DHT22;36730;49.036;9.094;2023-07-31T14:09:00;26.50;61.40
47174;DHT22;36730;49.036;9.094;2023-07-31T14:11:25;26.60;61.50
47174;DHT22;36730;49.036;9.094;2023-07-31T14:13:51;26.60;61.90
47174;DHT22;36730;49.036;9.094;2023-07-31T14:16:17;26.70;62.40
47174;DHT22;36730;49.036;9.094;2023-07-31T14:18:42;26.70;61.90
47174;DHT22;36730;49.036;9.094;2023-07-31T14:21:08;26.70;61.30
47174;DHT22;36730;49.036;9.094;2023-07-31T14:23:33;26.70;61.20
47174;DHT22;36730;49.036;9.094;2023-07-31T14:25:59;26.80;61.20
47174;DHT22;36730;49.036;9.094;2023-07-31T14:28:25;26.80;61.10
47174;DHT22;36730;49.036;9.094;2023-07-31T14:30:50;26.90;61.10
47174;DHT22;36730;49.036;9.094;2023-07-31T14:33:16;26.90;61.60
47174;DHT22;36730;49.036;9.094;2023-07-31T14:35:41;26.90;61.60
47174;DHT22;36730;49.036;9.094;2023-07-31T14:38:07;26.90;61.40
47174;DHT22;36730;49.036;9.094;2023-07-31T14:40:32;26.90;61.00
47174;DHT22;36730;49.036;9.094;2023-07-31T14:42:58;27.00;61.00
47174;DHT22;36730;49.036;9.094;2023-07-31T14:45:23;26.90;61.10
47174;DHT22;36730;49.036;9.094;2023-07-31T14:47:49;27.00;61.50
47174;DHT22;36730;49.036;9.094;2023-07-31T14:50:14;27.00;61.50
47174;DHT22;36730;49.036;9.094;2023-07-31T14:52:40;27.00;61.00
47174;DHT22;36730;49.036;9.094;2023-07-31T14:55:05;27.10;61.90
47174;DHT22;36730;49.036;9.094;2023-07-31T14:57:31;27.10;61.30
47174;DHT22;36730;49.036;9.094;2023-07-31T14:59:56;27.20;61.20
47174;DHT22;36730;49.036;9.094;2023-07-31T15:02:22;27.20;61.30
47174;DHT22;36730;49.036;9.094;2023-07-31T15:04:47;27.20;61.20
47174;DHT22;36730;49.036;9.094;2023-07-31T15:07:13;27.30;61.20
47174;DHT22;36730;49.036;9.094;2023-07-31T15:09:39;27.30;60.30
47174;DHT22;36730;49.036;9.094;2023-07-31T15:12:04;27.30;60.40
47174;DHT22;36730;49.036;9.094;2023-07-31T15:14:30;27.30;60.80
47174;DHT22;36730;49.036;9.094;2023-07-31T15:16:56;27.30;61.00
47174;DHT22;36730;49.036;9.094;2023-07-31T15:19:22;27.30;60.00
47174;DHT22;36730;49.036;9.094;2023-07-31T15:21:48;27.30;59.40
47174;DHT22;36730;49.036;9.094;2023-07-31T15:24:14;27.20;60.50
47174;DHT22;36730;49.036;9.094;2023-07-31T15:26:39;27.30;60.70
47174;DHT22;36730;49.036;9.094;2023-07-31T15:29:07;27.30;60.70
47174;DHT22;36730;49.036;9.094;2023-07-31T15:31:39;27.30;59.80
47174;DHT22;36730;49.036;9.094;2023-07-31T15:34:05;27.30;60.00
47174;DHT22;36730;49.036;9.094;2023-07-31T15:36:31;27.40;61.30
47174;DHT22;36730;49.036;9.094;2023-07-31T15:38:56;27.40;61.00
47174;DHT22;36730;49.036;9.094;2023-07-31T15:41:22;27.40;60.30
47174;DHT22;36730;49.036;9.094;2023-07-31T15:43:47;27.50;61.10
47174;DHT22;36730;49.036;9.094;2023-07-31T15:46:13;27.50;60.50